Blue Image — 3EXO5 — position and weather

sailwx.info

Track history (hours):
 
Tides and Currents Weather Stations Pressure Air Temp Water Temp Dewpoint Dewpoint Depression Visibility Wind Speed Wind Dir Waves Ship Positions

Blue Image

Last reported at 2015-Mar-04 20:33 UTC. Time now 2015-Mar-06 14:11 UTC.
Position N 36°27' E 015°13'.

Length 160 m; draft 10 m.

Type: Cargo ship. MMSI: 351960000.

Date/timePositionNaut miles runAvg speedWind from/ knotsBaromVisibWave heightAir tempDewpointWater temp
2015-Mar-04 20:33N 36°27' E 015°13'1312.4
2015-Mar-04 19:33N 36°28' E 014°57'1312.9
2015-Mar-04 18:33N 36°27' E 014°41'1212.5
2015-Mar-04 17:33N 36°30' E 014°26'1212.3
2015-Mar-04 16:33N 36°33' E 014°11'1212.3
2015-Mar-04 15:33N 36°36' E 013°56'1212.0
2015-Mar-04 14:33N 36°39' E 013°42'1211.9
2015-Mar-04 13:33N 36°42' E 013°28'1211.8
2015-Mar-04 12:33N 36°45' E 013°13'1212.1
2015-Mar-04 11:33N 36°49' E 012°59'1212.1
2015-Mar-04 10:33N 36°51' E 012°44'51312.5
2015-Mar-02 17:24N 37°05' E 002°02'1313.0
2015-Mar-02 16:25N 37°02' E 001°47'1113.1
2015-Mar-02 15:33N 36°58' E 001°33'1313.1
2015-Mar-02 14:33N 36°54' E 001°18'1312.7
2015-Mar-02 13:33N 36°51' E 001°02'1713.0
2015-Mar-02 12:13N 36°46' E 000°42'1013.1
2015-Mar-02 11:28N 36°43' E 000°30'1412.8
2015-Mar-02 10:21N 36°38' E 000°13'4812.4
2015-Mar-02 06:30N 36°24' W 000°44'21712.8
2015-Mar-01 13:34N 36°05' W 005°12'9 9.0
2015-Mar-01 12:34N 36°08' W 005°22'1 0.5
2015-Mar-01 11:33N 36°08' W 005°22'0 0.0
2015-Mar-01 10:33N 36°08' W 005°22'0 0.0
2015-Mar-01 08:30N 36°08' W 005°22'0 0.1
2015-Mar-01 07:27N 36°08' W 005°22'0 0.2
2015-Mar-01 06:30N 36°08' W 005°22'0 0.0
2015-Mar-01 05:33N 36°08' W 005°22'1 1.0
2015-Mar-01 04:33N 36°07' W 005°23'4 4.5
2015-Mar-01 03:33N 36°04' W 005°19'4 4.1
2015-Mar-01 02:33N 36°00' W 005°21'30011.5
2015-Feb-28 00:25N 36°04' W 011°31'1311.8
2015-Feb-27 23:19N 36°06' W 011°47'56311.9
2015-Feb-26 00:06N 37°24' W 023°23'912.0
2015-Feb-25 23:21N 37°25' W 023°34'912.0
2015-Feb-25 22:33N 37°26' W 023°46'1211.9
2015-Feb-25 21:33N 37°29' W 024°00'1211.8
2015-Feb-25 20:33N 37°31' W 024°15'1211.9
2015-Feb-25 19:33N 37°33' W 024°30'1212.2
2015-Feb-25 18:33N 37°34' W 024°45'1212.3
2015-Feb-25 17:33N 37°35' W 025°01'1211.9
2015-Feb-25 16:33N 37°37' W 025°16'1212.3
2015-Feb-25 15:34N 37°39' W 025°31'9 8.5
2015-Feb-25 14:33N 37°44' W 025°39'0 0.3
2015-Feb-25 13:33N 37°44' W 025°40'0 0.0
2015-Feb-25 12:33N 37°44' W 025°40'0 0.0
2015-Feb-25 11:33N 37°44' W 025°40'0 0.0
2015-Feb-25 10:33N 37°44' W 025°40'0 0.1
2015-Feb-25 09:33N 37°44' W 025°40'4 3.7
2015-Feb-25 08:34N 37°41' W 025°41'8 7.6
2015-Feb-25 07:33N 37°40' W 025°50'1111.2
2015-Feb-25 06:33N 37°42' W 026°04'1211.8
2015-Feb-25 05:34N 37°44' W 026°19'1211.7
2015-Feb-25 04:33N 37°46' W 026°33'1211.9
2015-Feb-25 03:33N 37°48' W 026°48'1212.1
2015-Feb-25 02:34N 37°51' W 027°03'1212.4
2015-Feb-25 01:33N 37°53' W 027°19'1312.5
2015-Feb-25 00:33N 37°55' W 027°34'1312.2
2015-Feb-24 23:27N 37°58' W 027°51'1312.2
2015-Feb-24 22:24N 37°60' W 028°07'1011.9
2015-Feb-24 21:33N 38°02' W 028°19'1212.0
2015-Feb-24 20:33N 38°07' W 028°34'2812.0
2015-Feb-24 18:14N 38°18' W 029°06'811.8
2015-Feb-24 17:33N 38°21' W 029°16'1211.6
2015-Feb-24 16:32N 38°25' W 029°30'2711.6
2015-Feb-24 14:13N 38°35' W 030°02'711.2
2015-Feb-24 13:33N 38°37' W 030°11'1211.8
2015-Feb-24 12:33N 38°41' W 030°25'1211.9
2015-Feb-24 11:32N 38°45' W 030°39'1211.8
2015-Feb-24 10:33N 38°50' W 030°53'1211.9
2015-Feb-24 09:34N 38°54' W 031°07'1312.2
2015-Feb-24 08:31N 38°58' W 031°23'1212.3
2015-Feb-24 07:33N 39°02' W 031°37'1211.8
2015-Feb-24 06:33N 39°06' W 031°51'1211.6
2015-Feb-24 05:33N 39°10' W 032°05'  
Track history (hours):
 
Tides and Currents Weather Stations Pressure Air Temp Water Temp Dewpoint Dewpoint Depression Visibility Wind Speed Wind Dir Waves Ship Positions

Blue Image

Last reported at 2015-Mar-04 20:33 UTC. Time now 2015-Mar-06 14:11 UTC.
Position N 36°27' E 015°13'.

Length 160 m; draft 10 m.

Type: Cargo ship. MMSI: 351960000.

Date/timePositionNaut miles runAvg speedWind from/ knotsBaromVisibWave heightAir tempDewpointWater temp
2015-Mar-04 20:33N 36°27' E 015°13'1312.4
2015-Mar-04 19:33N 36°28' E 014°57'1312.9
2015-Mar-04 18:33N 36°27' E 014°41'1212.5
2015-Mar-04 17:33N 36°30' E 014°26'1212.3
2015-Mar-04 16:33N 36°33' E 014°11'1212.3
2015-Mar-04 15:33N 36°36' E 013°56'1212.0
2015-Mar-04 14:33N 36°39' E 013°42'1211.9
2015-Mar-04 13:33N 36°42' E 013°28'1211.8
2015-Mar-04 12:33N 36°45' E 013°13'1212.1
2015-Mar-04 11:33N 36°49' E 012°59'1212.1
2015-Mar-04 10:33N 36°51' E 012°44'51312.5
2015-Mar-02 17:24N 37°05' E 002°02'1313.0
2015-Mar-02 16:25N 37°02' E 001°47'1113.1
2015-Mar-02 15:33N 36°58' E 001°33'1313.1
2015-Mar-02 14:33N 36°54' E 001°18'1312.7
2015-Mar-02 13:33N 36°51' E 001°02'1713.0
2015-Mar-02 12:13N 36°46' E 000°42'1013.1
2015-Mar-02 11:28N 36°43' E 000°30'1412.8
2015-Mar-02 10:21N 36°38' E 000°13'4812.4
2015-Mar-02 06:30N 36°24' W 000°44'21712.8
2015-Mar-01 13:34N 36°05' W 005°12'9 9.0
2015-Mar-01 12:34N 36°08' W 005°22'1 0.5
2015-Mar-01 11:33N 36°08' W 005°22'0 0.0
2015-Mar-01 10:33N 36°08' W 005°22'0 0.0
2015-Mar-01 08:30N 36°08' W 005°22'0 0.1
2015-Mar-01 07:27N 36°08' W 005°22'0 0.2
2015-Mar-01 06:30N 36°08' W 005°22'0 0.0
2015-Mar-01 05:33N 36°08' W 005°22'1 1.0
2015-Mar-01 04:33N 36°07' W 005°23'4 4.5
2015-Mar-01 03:33N 36°04' W 005°19'4 4.1
2015-Mar-01 02:33N 36°00' W 005°21'30011.5
2015-Feb-28 00:25N 36°04' W 011°31'1311.8
2015-Feb-27 23:19N 36°06' W 011°47'56311.9
2015-Feb-26 00:06N 37°24' W 023°23'912.0
2015-Feb-25 23:21N 37°25' W 023°34'912.0
2015-Feb-25 22:33N 37°26' W 023°46'1211.9
2015-Feb-25 21:33N 37°29' W 024°00'1211.8
2015-Feb-25 20:33N 37°31' W 024°15'1211.9
2015-Feb-25 19:33N 37°33' W 024°30'1212.2
2015-Feb-25 18:33N 37°34' W 024°45'1212.3
2015-Feb-25 17:33N 37°35' W 025°01'1211.9
2015-Feb-25 16:33N 37°37' W 025°16'1212.3
2015-Feb-25 15:34N 37°39' W 025°31'9 8.5
2015-Feb-25 14:33N 37°44' W 025°39'0 0.3
2015-Feb-25 13:33N 37°44' W 025°40'0 0.0
2015-Feb-25 12:33N 37°44' W 025°40'0 0.0
2015-Feb-25 11:33N 37°44' W 025°40'0 0.0
2015-Feb-25 10:33N 37°44' W 025°40'0 0.1
2015-Feb-25 09:33N 37°44' W 025°40'4 3.7
2015-Feb-25 08:34N 37°41' W 025°41'8 7.6
2015-Feb-25 07:33N 37°40' W 025°50'1111.2
2015-Feb-25 06:33N 37°42' W 026°04'1211.8
2015-Feb-25 05:34N 37°44' W 026°19'1211.7
2015-Feb-25 04:33N 37°46' W 026°33'1211.9
2015-Feb-25 03:33N 37°48' W 026°48'1212.1
2015-Feb-25 02:34N 37°51' W 027°03'1212.4
2015-Feb-25 01:33N 37°53' W 027°19'1312.5
2015-Feb-25 00:33N 37°55' W 027°34'1312.2
2015-Feb-24 23:27N 37°58' W 027°51'1312.2
2015-Feb-24 22:24N 37°60' W 028°07'1011.9
2015-Feb-24 21:33N 38°02' W 028°19'1212.0
2015-Feb-24 20:33N 38°07' W 028°34'2812.0
2015-Feb-24 18:14N 38°18' W 029°06'811.8
2015-Feb-24 17:33N 38°21' W 029°16'1211.6
2015-Feb-24 16:32N 38°25' W 029°30'2711.6
2015-Feb-24 14:13N 38°35' W 030°02'711.2
2015-Feb-24 13:33N 38°37' W 030°11'1211.8
2015-Feb-24 12:33N 38°41' W 030°25'1211.9
2015-Feb-24 11:32N 38°45' W 030°39'1211.8
2015-Feb-24 10:33N 38°50' W 030°53'1211.9
2015-Feb-24 09:34N 38°54' W 031°07'1312.2
2015-Feb-24 08:31N 38°58' W 031°23'1212.3
2015-Feb-24 07:33N 39°02' W 031°37'1211.8
2015-Feb-24 06:33N 39°06' W 031°51'1211.6
2015-Feb-24 05:33N 39°10' W 032°05'  

Dump ship's entire track history